Time;durP1;ratioP1;P1;durP2;ratioP2;P2;SDS_P1;SDS_P2;PMS_P1;PMS_P2;Temp;Humidity;BMP_temperature;BMP_pressure;BME280_temperature;BME280_humidity;BME280_pressure;Samples;Min_cycle;Max_cycle;Signal;HPM_P1;HPM_P2
2022/10/20 00:00:56;;;;;;;;;;;;;;;7.75;88.33;101248.09;5551805;32;34936;-66
2022/10/20 00:04:05;;;;;;;;;;;;;;;7.62;89.69;101255.38;5538903;32;34309;-66
2022/10/20 00:07:11;;;;;;;;;;;;;;;7.65;89.51;101253.31;5551842;32;34634;-66
2022/10/20 00:10:24;;;;;;;;;;;;;;;7.51;90.06;101253.63;5539308;32;34256;-66
2022/10/20 00:13:30;;;;;;;;;;;;;;;7.35;91.07;101255.84;5551894;32;34585;-66
2022/10/20 00:16:40;;;;;;;;;;;;;;;7.32;91.75;101258.72;5551602;32;34941;-66
2022/10/20 00:19:47;;;;;;;;;;;;;;;7.19;93.11;101261.53;5551676;32;34438;-66
2022/10/20 00:22:54;;;;;;;;;;;;;;;7.21;93.41;101267.50;5551569;32;34468;-66
2022/10/20 00:26:06;;;;;;;;;;;;;;;7.16;93.74;101269.72;5551699;32;34292;-66
2022/10/20 00:29:12;;;;;;;;;;;;;;;7.05;94.37;101272.38;5538194;32;34234;-66
2022/10/20 00:32:18;;;;;;;;;;;;;;;6.91;94.88;101283.19;5551647;32;34947;-66
2022/10/20 00:35:25;;;;;;;;;;;;;;;6.91;95.87;101277.91;5551644;32;34333;-66
2022/10/20 00:38:30;;;;;;;;;;;;;;;6.93;95.96;101275.97;5551523;32;34943;-66
2022/10/20 00:41:38;;;;;;;;;;;;;;;6.99;96.00;101278.97;5551561;32;34694;-66
2022/10/20 00:44:52;;;;;;;;;;;;;;;6.93;96.32;101275.97;5537307;32;33781;-66
2022/10/20 00:48:05;;;;;;;;;;;;;;;6.94;96.25;101283.78;5551485;32;34151;-66
2022/10/20 00:51:14;;;;;;;;;;;;;;;6.82;96.48;101276.00;5550574;32;34362;-67
2022/10/20 00:54:24;;;;;;;;;;;;;;;6.74;97.30;101279.25;5538251;32;35101;-66
2022/10/20 00:57:30;;;;;;;;;;;;;;;6.58;98.12;101270.87;5551474;32;34286;-66
2022/10/20 01:00:42;;;;;;;;;;;;;;;6.61;98.97;101282.97;5525461;32;35410;-66
2022/10/20 01:03:51;;;;;;;;;;;;;;;6.50;99.34;101284.66;5551369;32;34866;-66
2022/10/20 01:06:59;;;;;;;;;;;;;;;6.56;99.71;101283.34;5537513;32;32887;-66
2022/10/20 01:10:07;;;;;;;;;;;;;;;6.69;98.24;101289.31;5538613;32;34643;-66
2022/10/20 01:13:31;;;;;;;;;;;;;;;6.83;97.29;101288.22;5551276;32;34884;-66
2022/10/20 01:16:43;;;;;;;;;;;;;;;6.78;97.25;101290.38;5551237;32;34771;-67
2022/10/20 01:20:01;;;;;;;;;;;;;;;6.84;96.88;101289.91;5537403;32;34371;-66
2022/10/20 01:23:07;;;;;;;;;;;;;;;6.72;97.45;101289.09;5536999;32;34908;-66
2022/10/20 01:26:23;;;;;;;;;;;;;;;6.75;97.62;101283.56;5551034;32;34395;-66
2022/10/20 01:29:35;;;;;;;;;;;;;;;6.73;97.39;101277.56;5550997;32;34899;-66
2022/10/20 01:32:42;;;;;;;;;;;;;;;6.74;97.68;101273.13;5550992;32;34199;-66
2022/10/20 01:35:49;;;;;;;;;;;;;;;6.63;98.25;101275.78;5551032;32;34988;-66
2022/10/20 01:39:05;;;;;;;;;;;;;;;6.54;98.86;101291.34;5550923;32;34667;-66
2022/10/20 01:42:13;;;;;;;;;;;;;;;6.53;99.18;101281.75;5550949;32;34688;-67
2022/10/20 01:45:22;;;;;;;;;;;;;;;6.62;98.80;101284.66;5550862;32;34815;-66
2022/10/20 01:48:30;;;;;;;;;;;;;;;6.64;99.08;101290.63;5550820;32;34240;-66
2022/10/20 01:51:38;;;;;;;;;;;;;;;6.55;99.33;101295.66;5537807;32;34138;-66
2022/10/20 01:54:55;;;;;;;;;;;;;;;6.43;100.00;101293.16;5536854;32;35691;-66
2022/10/20 01:58:06;;;;;;;;;;;;;;;6.37;100.00;101294.47;5550819;32;34463;-65
2022/10/20 02:01:21;;;;;;;;;;;;;;;6.27;100.00;101287.38;5550639;32;34335;-67
2022/10/20 02:04:33;;;;;;;;;;;;;;;6.16;100.00;101297.91;5550775;32;34242;-66
2022/10/20 02:07:41;;;;;;;;;;;;;;;6.08;100.00;101286.16;5550761;32;34355;-66
2022/10/20 02:10:52;;;;;;;;;;;;;;;6.05;100.00;101289.00;5525748;32;34676;-66
2022/10/20 02:14:01;;;;;;;;;;;;;;;5.93;100.00;101287.31;5550580;32;34212;-67
2022/10/20 02:17:11;;;;;;;;;;;;;;;5.84;100.00;101281.88;5548371;32;34181;-66
2022/10/20 02:20:18;;;;;;;;;;;;;;;5.77;100.00;101286.75;5550652;32;34789;-66
2022/10/20 02:23:26;;;;;;;;;;;;;;;5.71;100.00;101289.88;5524368;32;35471;-66
2022/10/20 02:26:33;;;;;;;;;;;;;;;5.62;100.00;101296.62;5550506;32;34620;-66
2022/10/20 02:29:45;;;;;;;;;;;;;;;5.60;100.00;101300.34;5536174;32;35171;-66
2022/10/20 02:32:52;;;;;;;;;;;;;;;5.70;100.00;101298.72;5550491;32;34349;-66
2022/10/20 02:36:03;;;;;;;;;;;;;;;5.63;100.00;101300.94;5550413;32;34351;-66
2022/10/20 02:39:09;;;;;;;;;;;;;;;5.58;100.00;101299.59;5536346;32;34771;-66
2022/10/20 02:42:16;;;;;;;;;;;;;;;5.52;100.00;101306.16;5536895;32;34236;-66
2022/10/20 02:45:21;;;;;;;;;;;;;;;5.52;100.00;101307.94;5536659;32;35126;-66
2022/10/20 02:48:29;;;;;;;;;;;;;;;5.80;100.00;101310.25;5550207;32;34171;-66
2022/10/20 02:51:37;;;;;;;;;;;;;;;5.89;100.00;101319.28;5537116;32;34796;-66
2022/10/20 02:54:47;;;;;;;;;;;;;;;5.91;100.00;101319.97;5550046;32;34307;-66
2022/10/20 02:57:53;;;;;;;;;;;;;;;5.83;100.00;101325.81;5550069;32;34919;-66
2022/10/20 03:01:03;;;;;;;;;;;;;;;5.69;100.00;101329.47;5537017;32;34461;-66
2022/10/20 03:04:09;;;;;;;;;;;;;;;5.54;100.00;101320.06;5536826;32;34273;-66
2022/10/20 03:07:17;;;;;;;;;;;;;;;5.53;100.00;101321.00;5549847;32;34921;-66
2022/10/20 03:10:25;;;;;;;;;;;;;;;5.50;100.00;101328.28;5549922;32;34667;-66
2022/10/20 03:13:32;;;;;;;;;;;;;;;5.50;100.00;101329.13;5550649;32;34155;-66
2022/10/20 03:16:37;;;;;;;;;;;;;;;5.44;100.00;101334.84;5552125;32;34819;-66
2022/10/20 03:19:44;;;;;;;;;;;;;;;5.38;100.00;101345.81;5552238;32;34881;-66
2022/10/20 03:22:51;;;;;;;;;;;;;;;5.49;100.00;101337.12;5552142;32;34141;-66
2022/10/20 03:26:07;;;;;;;;;;;;;;;5.42;100.00;101333.28;5552241;32;34895;-66
2022/10/20 03:29:13;;;;;;;;;;;;;;;5.37;100.00;101346.78;5538753;32;34692;-66
2022/10/20 03:32:19;;;;;;;;;;;;;;;5.34;100.00;101346.97;5552042;32;34406;-67
2022/10/20 03:35:25;;;;;;;;;;;;;;;5.27;100.00;101353.66;5552011;32;34864;-66
2022/10/20 03:38:35;;;;;;;;;;;;;;;5.20;100.00;101347.12;5551987;32;34933;-66
2022/10/20 03:41:41;;;;;;;;;;;;;;;5.16;100.00;101343.88;5552081;32;34601;-66
2022/10/20 03:44:48;;;;;;;;;;;;;;;5.11;100.00;101347.78;5551845;32;34210;-66
2022/10/20 03:47:55;;;;;;;;;;;;;;;5.19;100.00;101353.34;5551773;32;34982;-66
2022/10/20 03:51:07;;;;;;;;;;;;;;;5.46;100.00;101345.25;5551803;32;34277;-67
2022/10/20 03:54:14;;;;;;;;;;;;;;;5.47;100.00;101346.94;5551960;32;34254;-66
2022/10/20 03:57:21;;;;;;;;;;;;;;;5.51;100.00;101346.63;5551970;32;34305;-65
2022/10/20 04:00:31;;;;;;;;;;;;;;;5.40;100.00;101354.44;5539048;32;34882;-65
2022/10/20 04:03:39;;;;;;;;;;;;;;;5.21;100.00;101360.19;5551883;32;35105;-66
2022/10/20 04:06:47;;;;;;;;;;;;;;;5.20;100.00;101358.50;5551827;32;34836;-66
2022/10/20 04:09:54;;;;;;;;;;;;;;;5.14;100.00;101350.19;5538430;32;34655;-66
2022/10/20 04:13:02;;;;;;;;;;;;;;;5.02;100.00;101349.28;5551780;32;34962;-66
2022/10/20 04:16:10;;;;;;;;;;;;;;;4.93;100.00;101359.63;5531432;32;34952;-66
2022/10/20 04:19:18;;;;;;;;;;;;;;;4.86;100.00;101355.72;5532336;32;34712;-66
2022/10/20 04:22:25;;;;;;;;;;;;;;;4.87;100.00;101352.16;5531532;32;34340;-66
2022/10/20 04:25:31;;;;;;;;;;;;;;;4.78;100.00;101349.22;5530862;32;34374;-66
2022/10/20 04:28:38;;;;;;;;;;;;;;;4.76;100.00;101356.38;5532146;32;34513;-66
2022/10/20 04:31:45;;;;;;;;;;;;;;;4.72;100.00;101354.06;5532274;32;33774;-66
2022/10/20 04:34:54;;;;;;;;;;;;;;;4.66;100.00;101355.31;5532224;32;34559;-66
2022/10/20 04:38:00;;;;;;;;;;;;;;;4.59;100.00;101359.34;5532332;32;34885;-67
2022/10/20 04:41:11;;;;;;;;;;;;;;;4.54;100.00;101350.09;5532144;32;35006;-66
2022/10/20 04:44:16;;;;;;;;;;;;;;;4.55;100.00;101343.88;5532136;32;34237;-66
2022/10/20 04:47:21;;;;;;;;;;;;;;;4.49;100.00;101349.56;5532049;32;34255;-65
2022/10/20 04:50:25;;;;;;;;;;;;;;;4.46;100.00;101353.22;5531413;32;34837;-66
2022/10/20 04:53:36;;;;;;;;;;;;;;;4.47;100.00;101348.81;5532192;32;34816;-66
2022/10/20 04:56:42;;;;;;;;;;;;;;;4.42;100.00;101356.16;5531896;32;34727;-66
2022/10/20 04:59:48;;;;;;;;;;;;;;;4.46;100.00;101358.47;5531945;32;34481;-66
2022/10/20 05:02:53;;;;;;;;;;;;;;;4.45;100.00;101353.34;5531071;32;34166;-66
2022/10/20 05:06:09;;;;;;;;;;;;;;;4.50;100.00;101352.09;5530858;32;34505;-66
2022/10/20 05:09:15;;;;;;;;;;;;;;;4.66;100.00;101363.22;5531711;32;34227;-65
2022/10/20 05:12:19;;;;;;;;;;;;;;;4.73;100.00;101377.62;5531853;32;34197;-65
2022/10/20 05:15:23;;;;;;;;;;;;;;;4.68;100.00;101369.22;5523558;32;34583;-66
2022/10/20 05:18:28;;;;;;;;;;;;;;;4.57;100.00;101363.84;5552189;32;34977;-67
2022/10/20 05:21:33;;;;;;;;;;;;;;;4.55;100.00;101389.37;5551266;32;34514;-66
2022/10/20 05:24:37;;;;;;;;;;;;;;;4.50;100.00;101385.41;5537212;32;35084;-65
2022/10/20 05:27:40;;;;;;;;;;;;;;;4.47;100.00;101386.44;5551220;32;34313;-66
2022/10/20 05:30:46;;;;;;;;;;;;;;;4.43;100.00;101395.47;5550741;32;34965;-65
2022/10/20 05:33:50;;;;;;;;;;;;;;;4.49;100.00;101397.69;5550887;32;34361;-66
2022/10/20 05:36:55;;;;;;;;;;;;;;;4.51;100.00;101408.94;5550159;32;34758;-66
2022/10/20 05:40:02;;;;;;;;;;;;;;;4.51;100.00;101408.94;5537281;32;34462;-66
2022/10/20 05:43:05;;;;;;;;;;;;;;;4.61;100.00;101417.03;5536597;32;34376;-66
2022/10/20 05:46:08;;;;;;;;;;;;;;;4.68;100.00;101423.56;5536426;32;34368;-66
2022/10/20 05:49:14;;;;;;;;;;;;;;;4.75;100.00;101423.03;5536572;32;35039;-66
2022/10/20 05:52:17;;;;;;;;;;;;;;;4.77;100.00;101429.03;5550265;32;34596;-66
2022/10/20 05:55:20;;;;;;;;;;;;;;;4.78;100.00;101420.22;5550269;32;34330;-66
2022/10/20 05:58:22;;;;;;;;;;;;;;;4.81;100.00;101435.75;5550381;32;34673;-66
2022/10/20 06:01:37;;;;;;;;;;;;;;;4.88;100.00;101432.72;5550544;32;34833;-66
2022/10/20 06:04:40;;;;;;;;;;;;;;;4.93;100.00;101431.47;5550333;32;34198;-66
2022/10/20 06:07:44;;;;;;;;;;;;;;;4.98;100.00;101439.03;5550370;32;34577;-66
2022/10/20 06:10:47;;;;;;;;;;;;;;;5.09;100.00;101444.34;5550327;32;34408;-67
2022/10/20 06:13:51;;;;;;;;;;;;;;;5.15;100.00;101450.03;5536418;32;34576;-66
2022/10/20 06:16:56;;;;;;;;;;;;;;;5.21;100.00;101447.00;5550178;32;34796;-67
2022/10/20 06:19:59;;;;;;;;;;;;;;;5.40;100.00;101443.06;5550147;32;34851;-67
2022/10/20 06:23:03;;;;;;;;;;;;;;;6.10;100.00;101457.25;5536387;32;34434;-66
2022/10/20 06:26:07;;;;;;;;;;;;;;;6.13;100.00;101464.97;5549851;32;34649;-67
2022/10/20 06:29:11;;;;;;;;;;;;;;;6.15;100.00;101465.66;5535703;32;34798;-67
2022/10/20 06:32:17;;;;;;;;;;;;;;;6.04;100.00;101469.12;5536830;32;34941;-66
2022/10/20 06:35:21;;;;;;;;;;;;;;;6.01;100.00;101476.38;5550263;32;34883;-66
2022/10/20 06:38:23;;;;;;;;;;;;;;;6.02;100.00;101478.91;5536480;32;34409;-66
2022/10/20 06:41:28;;;;;;;;;;;;;;;6.07;100.00;101482.06;5535765;32;34414;-67
2022/10/20 06:44:31;;;;;;;;;;;;;;;6.08;100.00;101485.53;5550032;32;34969;-66
2022/10/20 06:47:35;;;;;;;;;;;;;;;6.16;100.00;101493.72;5548727;32;34557;-67
2022/10/20 06:50:40;;;;;;;;;;;;;;;6.23;100.00;101475.66;5549852;32;34532;-66
2022/10/20 06:53:44;;;;;;;;;;;;;;;6.34;100.00;101481.81;5549491;32;34626;-67
2022/10/20 06:56:48;;;;;;;;;;;;;;;6.44;100.00;101480.16;5536311;32;34620;-67
2022/10/20 06:59:54;;;;;;;;;;;;;;;6.50;100.00;101482.34;5549756;32;34175;-67
2022/10/20 07:02:58;;;;;;;;;;;;;;;6.64;100.00;101493.66;5535890;32;35586;-67
2022/10/20 07:06:05;;;;;;;;;;;;;;;6.83;100.00;101499.22;5549545;32;34135;-67
2022/10/20 07:09:11;;;;;;;;;;;;;;;6.91;100.00;101497.69;5549444;32;34440;-67
2022/10/20 07:12:14;;;;;;;;;;;;;;;6.99;100.00;101503.22;5549679;32;34854;-67
2022/10/20 07:15:17;;;;;;;;;;;;;;;7.18;100.00;101502.66;5535629;32;33468;-68
2022/10/20 07:18:21;;;;;;;;;;;;;;;7.27;100.00;101509.84;5549421;32;34934;-67
2022/10/20 07:21:26;;;;;;;;;;;;;;;7.33;100.00;101514.66;5549481;32;34245;-67
2022/10/20 07:24:38;;;;;;;;;;;;;;;7.43;100.00;101512.13;5535587;32;34226;-67
2022/10/20 07:27:44;;;;;;;;;;;;;;;7.76;100.00;101516.56;5535604;32;34698;-68
2022/10/20 07:30:52;;;;;;;;;;;;;;;7.97;100.00;101511.37;5523053;32;34918;-67
2022/10/20 07:33:57;;;;;;;;;;;;;;;8.20;100.00;101512.97;5549567;32;34289;-67
2022/10/20 07:37:16;;;;;;;;;;;;;;;8.63;96.60;101511.16;5549306;32;34846;-67
2022/10/20 07:40:20;;;;;;;;;;;;;;;9.65;91.05;101505.03;5549057;32;34597;-67
2022/10/20 07:43:25;;;;;;;;;;;;;;;11.59;87.68;101505.66;5522811;32;32907;-68
2022/10/20 07:46:28;;;;;;;;;;;;;;;12.32;71.05;101508.34;5549033;32;34766;-67
2022/10/20 07:49:32;;;;;;;;;;;;;;;12.57;68.55;101508.41;5534943;32;34377;-67
2022/10/20 07:52:51;;;;;;;;;;;;;;;12.55;67.93;101514.87;5548988;32;34453;-68
2022/10/20 07:55:56;;;;;;;;;;;;;;;14.54;61.50;101515.41;5549868;32;34650;-69
2022/10/20 07:59:00;;;;;;;;;;;;;;;15.52;58.33;101520.50;5535913;32;34187;-69
2022/10/20 08:02:06;;;;;;;;;;;;;;;16.54;53.33;101524.81;5551785;32;34246;-69
2022/10/20 08:05:09;;;;;;;;;;;;;;;16.93;51.14;101524.69;5537763;32;32739;-69
2022/10/20 08:08:13;;;;;;;;;;;;;;;17.10;50.91;101520.00;5537989;32;34415;-69
2022/10/20 08:11:17;;;;;;;;;;;;;;;18.70;46.66;101510.03;5551551;32;33831;-68
2022/10/20 08:14:20;;;;;;;;;;;;;;;18.34;46.81;101522.69;5551730;32;34949;-69
2022/10/20 08:17:24;;;;;;;;;;;;;;;18.01;47.26;101517.78;5551349;32;35505;-70
2022/10/20 08:20:29;;;;;;;;;;;;;;;15.85;53.63;101518.53;5551386;32;34312;-68
2022/10/20 08:23:39;;;;;;;;;;;;;;;13.91;59.15;101523.91;5551506;32;34787;-69
2022/10/20 08:26:43;;;;;;;;;;;;;;;13.85;60.45;101525.37;5551519;32;34821;-68
2022/10/20 08:29:47;;;;;;;;;;;;;;;13.22;62.80;101518.72;5537932;32;34308;-68
2022/10/20 08:33:10;;;;;;;;;;;;;;;12.39;65.10;101526.19;5551221;32;34777;-67
2022/10/20 08:36:14;;;;;;;;;;;;;;;12.05;67.70;101527.84;5524741;32;34283;-67
2022/10/20 08:39:18;;;;;;;;;;;;;;;11.88;69.29;101528.63;5551349;32;34527;-68
2022/10/20 08:42:22;;;;;;;;;;;;;;;11.61;70.01;101526.78;5551092;32;35131;-68
2022/10/20 08:45:28;;;;;;;;;;;;;;;11.50;71.60;101521.66;5536953;32;34702;-68
2022/10/20 08:48:32;;;;;;;;;;;;;;;11.42;72.09;101530.34;5551162;32;34717;-67
2022/10/20 08:51:37;;;;;;;;;;;;;;;11.34;73.20;101525.75;5537506;32;34797;-68
2022/10/20 08:54:41;;;;;;;;;;;;;;;11.37;73.71;101521.16;5550902;32;35009;-67
2022/10/20 08:57:46;;;;;;;;;;;;;;;11.28;73.14;101533.44;5551964;32;34231;-68
2022/10/20 09:00:56;;;;;;;;;;;;;;;11.26;73.58;101530.12;5551052;32;34701;-67
2022/10/20 09:04:10;;;;;;;;;;;;;;;11.26;73.55;101533.62;5550873;32;34837;-68
2022/10/20 09:07:25;;;;;;;;;;;;;;;11.24;73.40;101537.38;5537030;32;32554;-68
2022/10/20 09:10:35;;;;;;;;;;;;;;;11.22;73.99;101540.19;5549997;32;34132;-68
2022/10/20 09:13:39;;;;;;;;;;;;;;;11.15;75.15;101535.59;5550665;32;34872;-67
2022/10/20 09:16:45;;;;;;;;;;;;;;;11.05;74.53;101524.97;5550752;32;34353;-68
2022/10/20 09:20:05;;;;;;;;;;;;;;;11.15;74.73;101536.44;5551197;32;34886;-68
2022/10/20 09:23:15;;;;;;;;;;;;;;;11.09;75.21;101530.84;5550938;32;34841;-68
2022/10/20 09:26:46;;;;;;;;;;;;;;;11.08;73.66;101537.16;5550766;32;34807;-68
2022/10/20 09:30:15;;;;;;;;;;;;;;;11.21;73.14;101535.88;5550711;32;34950;-66
2022/10/20 09:33:20;;;;;;;;;;;;;;;11.15;72.64;101532.94;5550586;32;34877;-67
2022/10/20 09:36:28;;;;;;;;;;;;;;;11.24;74.78;101534.72;5550782;32;34377;-67
2022/10/20 09:39:38;;;;;;;;;;;;;;;11.26;73.07;101532.78;5536617;32;34086;-67
2022/10/20 09:42:46;;;;;;;;;;;;;;;11.38;73.96;101536.91;5550692;32;34292;-67
2022/10/20 09:46:03;;;;;;;;;;;;;;;11.46;72.16;101537.06;5537325;32;34795;-66
2022/10/20 09:49:20;;;;;;;;;;;;;;;11.47;71.75;101535.22;5536997;32;33642;-68
2022/10/20 09:52:26;;;;;;;;;;;;;;;11.46;71.99;101536.22;5537301;32;34700;-68
2022/10/20 09:55:32;;;;;;;;;;;;;;;11.57;71.45;101530.72;5537273;32;34799;-68
2022/10/20 09:58:38;;;;;;;;;;;;;;;11.62;72.07;101531.94;5550851;32;34725;-69
2022/10/20 10:01:53;;;;;;;;;;;;;;;11.79;70.99;101525.03;5550884;32;34767;-67
2022/10/20 10:05:13;;;;;;;;;;;;;;;11.83;70.25;101525.56;5536439;32;35490;-67
2022/10/20 10:08:17;;;;;;;;;;;;;;;11.86;69.63;101531.44;5536412;32;34271;-70
2022/10/20 10:11:26;;;;;;;;;;;;;;;11.96;70.23;101524.22;5537436;32;34533;-68
2022/10/20 10:14:32;;;;;;;;;;;;;;;12.03;70.48;101520.00;5550587;32;34278;-69
2022/10/20 10:17:35;;;;;;;;;;;;;;;12.00;70.12;101511.50;5550134;32;35016;-68
2022/10/20 10:20:40;;;;;;;;;;;;;;;12.15;68.28;101518.00;5536711;32;35055;-68
2022/10/20 10:23:53;;;;;;;;;;;;;;;12.13;69.58;101520.78;5536790;32;34882;-67
2022/10/20 10:26:57;;;;;;;;;;;;;;;12.22;67.89;101508.41;5550381;32;34345;-69
2022/10/20 10:30:20;;;;;;;;;;;;;;;12.25;68.16;101504.63;5536476;32;35254;-67
2022/10/20 10:33:24;;;;;;;;;;;;;;;12.27;66.75;101505.28;5536551;32;34223;-67
2022/10/20 10:36:31;;;;;;;;;;;;;;;12.34;67.98;101501.87;5535982;32;35370;-68
2022/10/20 10:39:35;;;;;;;;;;;;;;;12.35;66.80;101498.22;5550075;32;34402;-67
2022/10/20 10:42:45;;;;;;;;;;;;;;;12.34;66.68;101498.37;5549867;32;34249;-67
2022/10/20 10:45:54;;;;;;;;;;;;;;;12.27;66.50;101499.97;5549937;32;34915;-66
2022/10/20 10:49:16;;;;;;;;;;;;;;;12.28;66.56;101491.84;5549788;32;34796;-68
2022/10/20 10:52:28;;;;;;;;;;;;;;;12.40;66.53;101487.94;5549731;32;34678;-68
2022/10/20 10:55:54;;;;;;;;;;;;;;;12.69;65.63;101482.38;5549937;32;34294;-68
2022/10/20 10:59:01;;;;;;;;;;;;;;;13.31;64.65;101483.97;5536030;32;32853;-68
2022/10/20 11:02:22;;;;;;;;;;;;;;;17.91;51.95;101479.66;5535916;32;34253;-68
2022/10/20 11:05:38;;;;;;;;;;;;;;;19.58;43.74;101470.94;5535920;32;33027;-68
2022/10/20 11:08:57;;;;;;;;;;;;;;;20.47;41.79;101468.97;5549531;32;34785;-68
2022/10/20 11:12:01;;;;;;;;;;;;;;;22.31;37.98;101463.91;5549563;32;34924;-69
2022/10/20 11:15:23;;;;;;;;;;;;;;;24.62;31.95;101462.09;5549507;32;34856;-70
2022/10/20 11:18:46;;;;;;;;;;;;;;;26.91;28.46;101447.44;5549777;32;34554;-70
2022/10/20 11:22:07;;;;;;;;;;;;;;;25.58;29.60;101452.62;5535446;32;34574;-69
2022/10/20 11:25:32;;;;;;;;;;;;;;;24.69;30.40;101447.34;5549446;32;34776;-69
2022/10/20 11:28:42;;;;;;;;;;;;;;;22.00;36.39;101442.25;5549260;32;34713;-69
2022/10/20 11:31:49;;;;;;;;;;;;;;;22.27;34.60;101440.22;5535590;32;33677;-70
2022/10/20 11:35:12;;;;;;;;;;;;;;;24.81;30.86;101438.38;5536750;32;34247;-71
2022/10/20 11:38:31;;;;;;;;;;;;;;;24.30;31.64;101434.47;5551925;32;34667;-70
2022/10/20 11:41:38;;;;;;;;;;;;;;;25.96;28.60;101420.22;5551815;32;34265;-70
2022/10/20 11:44:47;;;;;;;;;;;;;;;22.61;34.17;101406.47;5537908;32;34599;-70
2022/10/20 11:47:56;;;;;;;;;;;;;;;26.42;28.72;101411.00;5537789;32;33845;-71
2022/10/20 11:51:06;;;;;;;;;;;;;;;26.97;27.55;101408.28;5525117;32;34690;-70
2022/10/20 11:54:10;;;;;;;;;;;;;;;27.61;25.93;101403.97;5551474;32;34805;-70
2022/10/20 11:57:34;;;;;;;;;;;;;;;27.72;25.57;101399.44;5551420;32;34910;-68
2022/10/20 12:00:49;;;;;;;;;;;;;;;27.82;25.16;101405.00;5537741;32;35439;-69
2022/10/20 12:04:08;;;;;;;;;;;;;;;25.91;27.38;101399.19;5551655;32;34229;-68
2022/10/20 12:07:30;;;;;;;;;;;;;;;20.86;36.25;101396.13;5537691;32;32890;-69
2022/10/20 12:10:42;;;;;;;;;;;;;;;19.38;40.38;101388.22;5537181;32;35666;-69
2022/10/20 12:13:45;;;;;;;;;;;;;;;19.28;40.26;101384.25;5552043;32;34229;-68
2022/10/20 12:16:57;;;;;;;;;;;;;;;18.51;41.58;101393.25;5551868;32;34152;-68
2022/10/20 12:20:18;;;;;;;;;;;;;;;17.19;45.16;101390.16;5551744;32;34227;-68
2022/10/20 12:23:40;;;;;;;;;;;;;;;16.87;46.18;101383.34;5551396;32;34290;-67
2022/10/20 12:27:02;;;;;;;;;;;;;;;16.86;47.10;101369.13;5551271;32;35092;-67
2022/10/20 12:30:19;;;;;;;;;;;;;;;16.43;47.46;101372.53;5537560;32;35531;-67
2022/10/20 12:33:35;;;;;;;;;;;;;;;16.27;47.38;101373.50;5551488;32;34612;-67
2022/10/20 12:36:39;;;;;;;;;;;;;;;15.70;48.60;101367.75;5524815;32;37011;-68
2022/10/20 12:39:44;;;;;;;;;;;;;;;15.26;50.63;101362.13;5537171;32;33882;-68
2022/10/20 12:42:50;;;;;;;;;;;;;;;15.60;50.64;101361.81;5551327;32;34171;-67
2022/10/20 12:45:58;;;;;;;;;;;;;;;15.41;50.20;101359.53;5550126;32;34586;-68
2022/10/20 12:49:03;;;;;;;;;;;;;;;15.60;49.21;101357.28;5537854;32;34085;-67
2022/10/20 12:52:18;;;;;;;;;;;;;;;15.56;49.59;101347.97;5551165;32;34380;-68
2022/10/20 12:55:30;;;;;;;;;;;;;;;15.58;50.33;101343.28;5537467;32;33013;-68
2022/10/20 12:58:34;;;;;;;;;;;;;;;15.46;51.23;101341.97;5537422;32;34911;-67
2022/10/20 13:01:59;;;;;;;;;;;;;;;15.17;49.39;101337.28;5537135;32;34212;-68
2022/10/20 13:05:04;;;;;;;;;;;;;;;15.04;49.81;101329.00;5551338;32;34872;-67
2022/10/20 13:08:20;;;;;;;;;;;;;;;14.89;51.43;101327.22;5524152;32;32835;-66
2022/10/20 13:11:32;;;;;;;;;;;;;;;14.82;52.29;101327.06;5524754;32;36625;-67
2022/10/20 13:14:45;;;;;;;;;;;;;;;15.27;52.27;101321.03;5537314;32;34280;-67
2022/10/20 13:17:55;;;;;;;;;;;;;;;15.57;50.08;101324.72;5537201;32;35570;-67
2022/10/20 13:21:05;;;;;;;;;;;;;;;15.69;48.68;101322.44;5536930;32;34486;-68
2022/10/20 13:24:19;;;;;;;;;;;;;;;15.21;50.40;101319.88;5550945;32;34345;-67
2022/10/20 13:27:23;;;;;;;;;;;;;;;14.96;52.25;101323.66;5524401;32;35539;-67
2022/10/20 13:30:30;;;;;;;;;;;;;;;14.77;51.75;101329.41;5550549;32;35112;-67
2022/10/20 13:33:37;;;;;;;;;;;;;;;14.61;52.76;101324.97;5550683;32;34314;-67
2022/10/20 13:37:11;;;;;;;;;;;;;;;14.40;52.75;101323.84;5550217;32;34752;-67
2022/10/20 13:40:42;;;;;;;;;;;;;;;14.39;52.86;101317.66;5536666;32;34921;-67
2022/10/20 13:44:20;;;;;;;;;;;;;;;14.36;54.27;101312.66;5550786;32;34343;-67
2022/10/20 13:47:29;;;;;;;;;;;;;;;14.30;54.20;101315.97;5459803;32;37163;-67
2022/10/20 13:50:37;;;;;;;;;;;;;;;14.15;53.26;101317.66;5472026;32;34946;-66
2022/10/20 13:53:43;;;;;;;;;;;;;;;14.02;55.06;101312.84;5472126;32;34308;-67
2022/10/20 13:56:47;;;;;;;;;;;;;;;14.01;54.99;101310.31;5471493;32;34892;-67
2022/10/20 13:59:56;;;;;;;;;;;;;;;13.99;55.11;101307.81;5459287;32;35571;-66
2022/10/20 14:03:01;;;;;;;;;;;;;;;13.81;54.30;101312.50;5471997;32;35128;-66
2022/10/20 14:06:26;;;;;;;;;;;;;;;13.77;54.85;101308.50;5471923;32;34288;-67
2022/10/20 14:09:30;;;;;;;;;;;;;;;13.65;56.34;101302.63;5471418;32;34925;-67
2022/10/20 14:12:36;;;;;;;;;;;;;;;13.58;56.91;101290.97;5458250;32;33475;-67
2022/10/20 14:15:45;;;;;;;;;;;;;;;13.50;58.35;101304.31;5471390;32;34187;-68
2022/10/20 14:19:01;;;;;;;;;;;;;;;13.42;56.99;101290.94;5471713;32;33034;-67
2022/10/20 14:22:16;;;;;;;;;;;;;;;13.40;59.18;101293.81;5536283;32;34362;-67
2022/10/20 14:25:21;;;;;;;;;;;;;;;13.32;58.71;101292.94;5536075;32;34219;-67
2022/10/20 14:28:28;;;;;;;;;;;;;;;13.12;59.40;101284.37;5549654;32;34899;-68
2022/10/20 14:31:32;;;;;;;;;;;;;;;12.98;60.40;101288.47;5536126;32;35148;-67
2022/10/20 14:34:35;;;;;;;;;;;;;;;12.89;60.62;101289.44;5549135;32;34526;-67
2022/10/20 14:37:43;;;;;;;;;;;;;;;12.83;62.96;101290.06;5549244;32;34252;-67
2022/10/20 14:40:53;;;;;;;;;;;;;;;12.77;60.82;101287.22;5536395;32;34288;-67
2022/10/20 14:43:59;;;;;;;;;;;;;;;12.85;60.07;101289.91;5549393;32;34244;-67
2022/10/20 14:47:11;;;;;;;;;;;;;;;12.86;61.39;101278.28;5548958;32;35113;-66
2022/10/20 14:50:23;;;;;;;;;;;;;;;12.72;62.06;101286.88;5535249;32;34377;-66
2022/10/20 14:53:29;;;;;;;;;;;;;;;12.53;63.38;101288.78;5549826;32;34323;-67
2022/10/20 14:56:41;;;;;;;;;;;;;;;12.42;63.60;101289.06;5535616;32;34317;-67
2022/10/20 15:00:01;;;;;;;;;;;;;;;12.45;63.22;101275.41;5549279;32;34893;-67
2022/10/20 15:03:08;;;;;;;;;;;;;;;12.39;63.78;101273.38;5535899;32;33638;-67
2022/10/20 15:06:13;;;;;;;;;;;;;;;12.38;64.81;101277.06;5535586;32;35370;-67
2022/10/20 15:09:26;;;;;;;;;;;;;;;12.16;64.96;101274.91;5535875;32;32758;-67
2022/10/20 15:12:32;;;;;;;;;;;;;;;12.23;63.88;101273.31;5538168;32;35075;-67
2022/10/20 15:15:37;;;;;;;;;;;;;;;12.31;64.34;101264.53;5551715;32;34308;-67
2022/10/20 15:18:43;;;;;;;;;;;;;;;12.16;63.13;101264.25;5551539;32;34974;-66
2022/10/20 15:21:49;;;;;;;;;;;;;;;12.06;64.50;101269.69;5537688;32;35018;-67
2022/10/20 15:24:54;;;;;;;;;;;;;;;12.08;63.85;101261.56;5551760;32;34706;-67
2022/10/20 15:28:01;;;;;;;;;;;;;;;11.95;65.64;101259.31;5551561;32;34775;-67
2022/10/20 15:31:13;;;;;;;;;;;;;;;11.75;67.12;101263.16;5537809;32;33010;-67
2022/10/20 15:34:20;;;;;;;;;;;;;;;11.57;67.06;101257.78;5525159;32;34031;-67
2022/10/20 15:37:27;;;;;;;;;;;;;;;11.42;67.83;101262.00;5537748;32;34504;-67
2022/10/20 15:40:40;;;;;;;;;;;;;;;11.24;68.68;101242.53;5537981;32;34218;-68
2022/10/20 15:43:49;;;;;;;;;;;;;;;11.08;69.71;101253.00;5551398;32;34279;-68
2022/10/20 15:46:56;;;;;;;;;;;;;;;11.03;72.64;101256.12;5551691;32;34738;-67
2022/10/20 15:50:02;;;;;;;;;;;;;;;10.97;73.40;101256.72;5537811;32;34294;-68
2022/10/20 15:53:09;;;;;;;;;;;;;;;11.11;71.60;101252.72;5537906;32;34246;-67
2022/10/20 15:56:15;;;;;;;;;;;;;;;10.89;72.11;101248.66;5551973;32;34873;-68
2022/10/20 15:59:22;;;;;;;;;;;;;;;10.70;72.06;101248.75;5551556;32;34644;-68
2022/10/20 16:02:28;;;;;;;;;;;;;;;10.53;72.77;101249.53;5551379;32;34894;-68
2022/10/20 16:05:35;;;;;;;;;;;;;;;10.38;74.06;101251.81;5551729;32;34909;-67
2022/10/20 16:08:42;;;;;;;;;;;;;;;10.26;75.27;101253.81;5537741;32;34366;-68
2022/10/20 16:11:50;;;;;;;;;;;;;;;10.18;75.82;101252.84;5551516;32;34782;-66